Terminal Aerodrome Forecast
Issued by NWS

Home | Current Version | Previous Version | Text Only | Print | Product List | Glossary On
Versions: 1 2 3 4 5 6 7 8 9 10 11 12 13 14 15
000
FTUS45 KRIW 242300
TAFCPR
TAF
KCPR 242339Z 2500/2524 24020G28KT P6SM VCSH SCT120
     FM250200 25015KT P6SM FEW120
     FM250900 36010KT P6SM SKC
     FM251700 24011KT P6SM SKC
     FM251900 25020G30KT P6SM SKC=

USA.gov is the U.S. government's official web portal to all federal, state and local government web resources and services.